sensor_id;sensor_type;location;lat;lon;timestamp;P1;durP1;ratioP1;P2;durP2;ratioP2
51248;SDS011;39642;47.556;18.728;2022-12-18T00:01:58;19.92;;;9.65;;
51248;SDS011;39642;47.556;18.728;2022-12-18T00:04:27;21.48;;;10.68;;
51248;SDS011;39642;47.556;18.728;2022-12-18T00:06:53;20.02;;;9.35;;
51248;SDS011;39642;47.556;18.728;2022-12-18T00:09:19;18.70;;;9.65;;
51248;SDS011;39642;47.556;18.728;2022-12-18T00:11:46;20.02;;;9.27;;
51248;SDS011;39642;47.556;18.728;2022-12-18T00:14:12;20.35;;;9.35;;
51248;SDS011;39642;47.556;18.728;2022-12-18T00:16:39;21.20;;;9.90;;
51248;SDS011;39642;47.556;18.728;2022-12-18T00:19:05;20.23;;;9.40;;
51248;SDS011;39642;47.556;18.728;2022-12-18T00:21:32;20.37;;;8.95;;
51248;SDS011;39642;47.556;18.728;2022-12-18T00:23:59;21.10;;;9.82;;
51248;SDS011;39642;47.556;18.728;2022-12-18T00:26:26;19.92;;;9.70;;
51248;SDS011;39642;47.556;18.728;2022-12-18T00:29:14;19.27;;;8.88;;
51248;SDS011;39642;47.556;18.728;2022-12-18T00:34:06;18.85;;;9.75;;
51248;SDS011;39642;47.556;18.728;2022-12-18T00:36:33;19.87;;;9.02;;
51248;SDS011;39642;47.556;18.728;2022-12-18T00:39:00;18.33;;;8.82;;
51248;SDS011;39642;47.556;18.728;2022-12-18T00:41:28;20.75;;;9.20;;
51248;SDS011;39642;47.556;18.728;2022-12-18T00:44:13;18.80;;;9.30;;
51248;SDS011;39642;47.556;18.728;2022-12-18T00:46:41;19.73;;;8.98;;
51248;SDS011;39642;47.556;18.728;2022-12-18T00:49:08;18.02;;;8.88;;
51248;SDS011;39642;47.556;18.728;2022-12-18T00:51:34;18.33;;;8.45;;
51248;SDS011;39642;47.556;18.728;2022-12-18T00:53:59;21.08;;;9.25;;
51248;SDS011;39642;47.556;18.728;2022-12-18T00:56:26;19.25;;;9.18;;
51248;SDS011;39642;47.556;18.728;2022-12-18T00:58:52;18.85;;;9.10;;
51248;SDS011;39642;47.556;18.728;2022-12-18T01:01:18;19.60;;;9.18;;
51248;SDS011;39642;47.556;18.728;2022-12-18T01:03:44;19.25;;;9.18;;
51248;SDS011;39642;47.556;18.728;2022-12-18T01:06:12;18.55;;;9.05;;
51248;SDS011;39642;47.556;18.728;2022-12-18T01:08:39;22.33;;;9.70;;
51248;SDS011;39642;47.556;18.728;2022-12-18T01:11:08;18.67;;;8.82;;
51248;SDS011;39642;47.556;18.728;2022-12-18T01:13:37;20.20;;;9.57;;
51248;SDS011;39642;47.556;18.728;2022-12-18T01:16:04;19.25;;;9.30;;
51248;SDS011;39642;47.556;18.728;2022-12-18T01:18:30;18.67;;;9.27;;
51248;SDS011;39642;47.556;18.728;2022-12-18T01:20:56;19.00;;;8.95;;
51248;SDS011;39642;47.556;18.728;2022-12-18T01:23:22;18.85;;;9.25;;
51248;SDS011;39642;47.556;18.728;2022-12-18T01:25:48;18.48;;;8.82;;
51248;SDS011;39642;47.556;18.728;2022-12-18T01:28:14;18.83;;;8.98;;
51248;SDS011;39642;47.556;18.728;2022-12-18T01:30:40;20.05;;;9.30;;
51248;SDS011;39642;47.556;18.728;2022-12-18T01:33:05;19.48;;;9.68;;
51248;SDS011;39642;47.556;18.728;2022-12-18T01:35:31;20.65;;;9.43;;
51248;SDS011;39642;47.556;18.728;2022-12-18T01:37:57;19.50;;;9.70;;
51248;SDS011;39642;47.556;18.728;2022-12-18T01:40:23;21.05;;;9.70;;
51248;SDS011;39642;47.556;18.728;2022-12-18T01:42:52;18.20;;;8.85;;
51248;SDS011;39642;47.556;18.728;2022-12-18T01:53:06;20.95;;;9.38;;
51248;SDS011;39642;47.556;18.728;2022-12-18T01:55:38;18.42;;;8.63;;
51248;SDS011;39642;47.556;18.728;2022-12-18T01:58:09;18.15;;;8.98;;
51248;SDS011;39642;47.556;18.728;2022-12-18T02:00:35;18.25;;;8.90;;
51248;SDS011;39642;47.556;18.728;2022-12-18T02:03:01;19.08;;;9.45;;
51248;SDS011;39642;47.556;18.728;2022-12-18T02:08:10;18.25;;;8.43;;
51248;SDS011;39642;47.556;18.728;2022-12-18T02:16:29;20.67;;;9.25;;
51248;SDS011;39642;47.556;18.728;2022-12-18T02:19:13;20.58;;;9.23;;
51248;SDS011;39642;47.556;18.728;2022-12-18T02:21:57;18.62;;;8.77;;
51248;SDS011;39642;47.556;18.728;2022-12-18T02:27:25;18.65;;;8.90;;
51248;SDS011;39642;47.556;18.728;2022-12-18T02:29:53;18.17;;;8.70;;
51248;SDS011;39642;47.556;18.728;2022-12-18T02:32:24;18.67;;;8.80;;
51248;SDS011;39642;47.556;18.728;2022-12-18T02:34:54;21.80;;;8.80;;
51248;SDS011;39642;47.556;18.728;2022-12-18T02:37:21;18.40;;;9.23;;
51248;SDS011;39642;47.556;18.728;2022-12-18T02:39:49;18.55;;;9.65;;
51248;SDS011;39642;47.556;18.728;2022-12-18T02:42:18;20.35;;;9.27;;
51248;SDS011;39642;47.556;18.728;2022-12-18T02:44:45;20.15;;;9.82;;
51248;SDS011;39642;47.556;18.728;2022-12-18T02:47:13;19.98;;;9.63;;
51248;SDS011;39642;47.556;18.728;2022-12-18T02:58:14;19.77;;;9.20;;
51248;SDS011;39642;47.556;18.728;2022-12-18T03:03:28;20.58;;;9.13;;
51248;SDS011;39642;47.556;18.728;2022-12-18T03:08:58;18.52;;;9.50;;
51248;SDS011;39642;47.556;18.728;2022-12-18T03:11:37;17.85;;;9.25;;
51248;SDS011;39642;47.556;18.728;2022-12-18T03:14:25;18.42;;;9.35;;
51248;SDS011;39642;47.556;18.728;2022-12-18T03:16:57;19.30;;;9.32;;
51248;SDS011;39642;47.556;18.728;2022-12-18T03:19:27;20.02;;;9.57;;
51248;SDS011;39642;47.556;18.728;2022-12-18T03:21:56;19.12;;;9.07;;
51248;SDS011;39642;47.556;18.728;2022-12-18T03:24:24;20.17;;;9.50;;
51248;SDS011;39642;47.556;18.728;2022-12-18T03:26:54;19.00;;;9.23;;
51248;SDS011;39642;47.556;18.728;2022-12-18T03:29:47;19.77;;;9.77;;
51248;SDS011;39642;47.556;18.728;2022-12-18T03:32:24;18.45;;;9.10;;
51248;SDS011;39642;47.556;18.728;2022-12-18T03:34:55;19.15;;;9.55;;
51248;SDS011;39642;47.556;18.728;2022-12-18T03:37:26;18.02;;;8.65;;
51248;SDS011;39642;47.556;18.728;2022-12-18T03:39:52;19.02;;;9.13;;
51248;SDS011;39642;47.556;18.728;2022-12-18T03:42:21;19.77;;;9.30;;
51248;SDS011;39642;47.556;18.728;2022-12-18T03:44:58;19.58;;;9.68;;
51248;SDS011;39642;47.556;18.728;2022-12-18T03:47:39;19.17;;;9.20;;
51248;SDS011;39642;47.556;18.728;2022-12-18T03:50:18;18.25;;;9.20;;
51248;SDS011;39642;47.556;18.728;2022-12-18T03:52:52;19.83;;;9.45;;
51248;SDS011;39642;47.556;18.728;2022-12-18T03:55:25;18.25;;;9.18;;
51248;SDS011;39642;47.556;18.728;2022-12-18T03:57:54;19.58;;;8.65;;
51248;SDS011;39642;47.556;18.728;2022-12-18T04:00:22;18.17;;;8.68;;
51248;SDS011;39642;47.556;18.728;2022-12-18T04:02:52;17.77;;;8.70;;
51248;SDS011;39642;47.556;18.728;2022-12-18T04:05:21;19.63;;;8.63;;
51248;SDS011;39642;47.556;18.728;2022-12-18T04:07:49;18.58;;;9.65;;
51248;SDS011;39642;47.556;18.728;2022-12-18T04:10:16;19.75;;;9.52;;
51248;SDS011;39642;47.556;18.728;2022-12-18T04:12:42;19.08;;;9.38;;
51248;SDS011;39642;47.556;18.728;2022-12-18T04:15:09;19.15;;;9.30;;
51248;SDS011;39642;47.556;18.728;2022-12-18T04:17:36;21.17;;;9.48;;
51248;SDS011;39642;47.556;18.728;2022-12-18T04:20:03;19.20;;;9.63;;
51248;SDS011;39642;47.556;18.728;2022-12-18T04:22:29;19.00;;;9.18;;
51248;SDS011;39642;47.556;18.728;2022-12-18T04:24:55;19.85;;;9.00;;
51248;SDS011;39642;47.556;18.728;2022-12-18T04:27:21;19.67;;;9.32;;
51248;SDS011;39642;47.556;18.728;2022-12-18T04:29:47;21.55;;;10.13;;
51248;SDS011;39642;47.556;18.728;2022-12-18T04:32:13;16.80;;;8.63;;
51248;SDS011;39642;47.556;18.728;2022-12-18T04:34:39;18.25;;;8.73;;
51248;SDS011;39642;47.556;18.728;2022-12-18T04:37:04;17.55;;;8.82;;
51248;SDS011;39642;47.556;18.728;2022-12-18T04:39:30;18.77;;;9.40;;
51248;SDS011;39642;47.556;18.728;2022-12-18T04:41:56;19.42;;;9.70;;
51248;SDS011;39642;47.556;18.728;2022-12-18T04:44:25;18.73;;;9.02;;
51248;SDS011;39642;47.556;18.728;2022-12-18T04:46:50;18.50;;;9.07;;
51248;SDS011;39642;47.556;18.728;2022-12-18T04:49:16;19.10;;;9.35;;
51248;SDS011;39642;47.556;18.728;2022-12-18T04:51:42;17.27;;;8.88;;
51248;SDS011;39642;47.556;18.728;2022-12-18T04:54:08;19.23;;;9.35;;
51248;SDS011;39642;47.556;18.728;2022-12-18T04:56:34;19.00;;;9.50;;
51248;SDS011;39642;47.556;18.728;2022-12-18T04:59:00;18.90;;;9.35;;
51248;SDS011;39642;47.556;18.728;2022-12-18T05:01:26;19.67;;;9.60;;
51248;SDS011;39642;47.556;18.728;2022-12-18T05:03:51;19.02;;;9.13;;
51248;SDS011;39642;47.556;18.728;2022-12-18T05:06:17;18.77;;;9.38;;
51248;SDS011;39642;47.556;18.728;2022-12-18T05:08:43;19.27;;;10.13;;
51248;SDS011;39642;47.556;18.728;2022-12-18T05:11:10;20.30;;;9.32;;
51248;SDS011;39642;47.556;18.728;2022-12-18T05:13:41;18.48;;;9.20;;
51248;SDS011;39642;47.556;18.728;2022-12-18T05:16:08;18.05;;;8.68;;
51248;SDS011;39642;47.556;18.728;2022-12-18T05:18:34;18.02;;;8.48;;
51248;SDS011;39642;47.556;18.728;2022-12-18T05:21:00;18.40;;;8.48;;
51248;SDS011;39642;47.556;18.728;2022-12-18T05:23:26;17.75;;;8.88;;
51248;SDS011;39642;47.556;18.728;2022-12-18T05:25:53;17.55;;;8.23;;
51248;SDS011;39642;47.556;18.728;2022-12-18T05:28:24;18.80;;;9.02;;
51248;SDS011;39642;47.556;18.728;2022-12-18T05:30:53;19.37;;;8.52;;
51248;SDS011;39642;47.556;18.728;2022-12-18T05:33:22;18.75;;;8.88;;
51248;SDS011;39642;47.556;18.728;2022-12-18T05:35:53;17.62;;;8.27;;
51248;SDS011;39642;47.556;18.728;2022-12-18T05:38:20;18.55;;;8.55;;
51248;SDS011;39642;47.556;18.728;2022-12-18T05:40:47;17.30;;;8.82;;
51248;SDS011;39642;47.556;18.728;2022-12-18T05:43:15;19.60;;;8.82;;
51248;SDS011;39642;47.556;18.728;2022-12-18T05:45:41;17.10;;;8.35;;
51248;SDS011;39642;47.556;18.728;2022-12-18T05:48:07;17.10;;;8.60;;
51248;SDS011;39642;47.556;18.728;2022-12-18T05:50:39;19.10;;;8.93;;
51248;SDS011;39642;47.556;18.728;2022-12-18T05:53:06;16.77;;;8.13;;
51248;SDS011;39642;47.556;18.728;2022-12-18T05:55:36;18.08;;;9.13;;
51248;SDS011;39642;47.556;18.728;2022-12-18T05:58:03;18.45;;;8.57;;
51248;SDS011;39642;47.556;18.728;2022-12-18T06:00:31;18.17;;;8.32;;
51248;SDS011;39642;47.556;18.728;2022-12-18T06:02:58;18.30;;;8.90;;
51248;SDS011;39642;47.556;18.728;2022-12-18T06:05:25;18.42;;;8.95;;
51248;SDS011;39642;47.556;18.728;2022-12-18T06:07:51;19.85;;;9.02;;
51248;SDS011;39642;47.556;18.728;2022-12-18T06:10:17;19.42;;;8.63;;
51248;SDS011;39642;47.556;18.728;2022-12-18T06:12:43;17.70;;;8.70;;
51248;SDS011;39642;47.556;18.728;2022-12-18T06:15:09;17.90;;;9.07;;
51248;SDS011;39642;47.556;18.728;2022-12-18T06:17:36;17.87;;;8.77;;
51248;SDS011;39642;47.556;18.728;2022-12-18T06:20:03;20.05;;;9.52;;
51248;SDS011;39642;47.556;18.728;2022-12-18T06:22:33;17.27;;;8.90;;
51248;SDS011;39642;47.556;18.728;2022-12-18T06:25:00;17.05;;;8.70;;
51248;SDS011;39642;47.556;18.728;2022-12-18T06:27:26;18.02;;;8.77;;
51248;SDS011;39642;47.556;18.728;2022-12-18T06:29:52;17.27;;;8.60;;
51248;SDS011;39642;47.556;18.728;2022-12-18T06:32:18;19.10;;;9.02;;
51248;SDS011;39642;47.556;18.728;2022-12-18T06:34:44;17.17;;;7.82;;
51248;SDS011;39642;47.556;18.728;2022-12-18T06:37:10;18.20;;;8.32;;
51248;SDS011;39642;47.556;18.728;2022-12-18T06:39:36;16.90;;;8.05;;
51248;SDS011;39642;47.556;18.728;2022-12-18T06:42:02;17.35;;;8.00;;
51248;SDS011;39642;47.556;18.728;2022-12-18T06:44:28;16.42;;;8.02;;
51248;SDS011;39642;47.556;18.728;2022-12-18T06:46:54;18.75;;;8.93;;
51248;SDS011;39642;47.556;18.728;2022-12-18T06:49:20;17.40;;;8.52;;
51248;SDS011;39642;47.556;18.728;2022-12-18T06:51:46;17.37;;;8.38;;
51248;SDS011;39642;47.556;18.728;2022-12-18T06:54:12;18.55;;;8.30;;
51248;SDS011;39642;47.556;18.728;2022-12-18T06:56:38;18.37;;;8.75;;
51248;SDS011;39642;47.556;18.728;2022-12-18T06:59:04;18.02;;;8.60;;
51248;SDS011;39642;47.556;18.728;2022-12-18T07:01:30;17.77;;;8.88;;
51248;SDS011;39642;47.556;18.728;2022-12-18T07:03:56;19.45;;;8.93;;
51248;SDS011;39642;47.556;18.728;2022-12-18T07:06:23;16.92;;;8.27;;
51248;SDS011;39642;47.556;18.728;2022-12-18T07:08:51;17.85;;;8.60;;
51248;SDS011;39642;47.556;18.728;2022-12-18T07:11:19;18.05;;;8.32;;
51248;SDS011;39642;47.556;18.728;2022-12-18T07:13:45;17.05;;;8.40;;
51248;SDS011;39642;47.556;18.728;2022-12-18T07:16:13;19.23;;;8.40;;
51248;SDS011;39642;47.556;18.728;2022-12-18T07:18:40;18.90;;;9.27;;
51248;SDS011;39642;47.556;18.728;2022-12-18T07:21:07;17.62;;;8.00;;
51248;SDS011;39642;47.556;18.728;2022-12-18T07:23:37;17.77;;;8.20;;
51248;SDS011;39642;47.556;18.728;2022-12-18T07:26:04;18.92;;;9.10;;
51248;SDS011;39642;47.556;18.728;2022-12-18T07:28:32;19.67;;;9.85;;
51248;SDS011;39642;47.556;18.728;2022-12-18T07:31:12;19.42;;;8.88;;
51248;SDS011;39642;47.556;18.728;2022-12-18T07:33:40;18.33;;;8.50;;
51248;SDS011;39642;47.556;18.728;2022-12-18T07:36:06;18.42;;;9.05;;
51248;SDS011;39642;47.556;18.728;2022-12-18T07:38:33;18.70;;;8.93;;
51248;SDS011;39642;47.556;18.728;2022-12-18T07:41:00;19.08;;;9.25;;
51248;SDS011;39642;47.556;18.728;2022-12-18T07:43:31;19.02;;;9.65;;
51248;SDS011;39642;47.556;18.728;2022-12-18T07:45:57;18.85;;;9.90;;
51248;SDS011;39642;47.556;18.728;2022-12-18T07:48:23;18.98;;;9.60;;
51248;SDS011;39642;47.556;18.728;2022-12-18T07:50:49;20.45;;;10.00;;
51248;SDS011;39642;47.556;18.728;2022-12-18T07:53:15;18.20;;;9.55;;
51248;SDS011;39642;47.556;18.728;2022-12-18T07:55:41;19.62;;;9.48;;
51248;SDS011;39642;47.556;18.728;2022-12-18T07:58:07;20.85;;;9.85;;
51248;SDS011;39642;47.556;18.728;2022-12-18T08:00:34;20.65;;;10.15;;
51248;SDS011;39642;47.556;18.728;2022-12-18T08:03:00;20.33;;;10.38;;
51248;SDS011;39642;47.556;18.728;2022-12-18T08:05:27;21.27;;;10.93;;
51248;SDS011;39642;47.556;18.728;2022-12-18T08:07:53;20.55;;;10.70;;
51248;SDS011;39642;47.556;18.728;2022-12-18T08:10:20;20.85;;;10.63;;
51248;SDS011;39642;47.556;18.728;2022-12-18T08:12:50;22.00;;;11.10;;
51248;SDS011;39642;47.556;18.728;2022-12-18T08:15:16;19.70;;;10.07;;
51248;SDS011;39642;47.556;18.728;2022-12-18T08:17:43;19.95;;;10.45;;
51248;SDS011;39642;47.556;18.728;2022-12-18T08:20:09;21.17;;;11.25;;
51248;SDS011;39642;47.556;18.728;2022-12-18T08:22:35;20.12;;;9.82;;
51248;SDS011;39642;47.556;18.728;2022-12-18T08:25:04;21.98;;;10.48;;
51248;SDS011;39642;47.556;18.728;2022-12-18T08:27:30;22.40;;;10.80;;
51248;SDS011;39642;47.556;18.728;2022-12-18T08:29:56;22.20;;;10.70;;
51248;SDS011;39642;47.556;18.728;2022-12-18T08:32:23;22.15;;;10.90;;
51248;SDS011;39642;47.556;18.728;2022-12-18T08:34:49;21.30;;;11.55;;
51248;SDS011;39642;47.556;18.728;2022-12-18T08:37:15;24.05;;;11.80;;
51248;SDS011;39642;47.556;18.728;2022-12-18T08:39:41;21.10;;;10.70;;
51248;SDS011;39642;47.556;18.728;2022-12-18T08:42:07;20.85;;;10.27;;
51248;SDS011;39642;47.556;18.728;2022-12-18T08:44:51;21.58;;;10.07;;
51248;SDS011;39642;47.556;18.728;2022-12-18T08:47:17;22.67;;;10.88;;
51248;SDS011;39642;47.556;18.728;2022-12-18T08:49:43;21.50;;;11.12;;
51248;SDS011;39642;47.556;18.728;2022-12-18T08:52:09;22.02;;;11.40;;
51248;SDS011;39642;47.556;18.728;2022-12-18T08:54:35;22.80;;;11.07;;
51248;SDS011;39642;47.556;18.728;2022-12-18T08:57:01;22.05;;;10.77;;
51248;SDS011;39642;47.556;18.728;2022-12-18T08:59:28;19.70;;;10.23;;
51248;SDS011;39642;47.556;18.728;2022-12-18T09:01:54;21.15;;;10.85;;
51248;SDS011;39642;47.556;18.728;2022-12-18T09:04:21;22.37;;;11.88;;
51248;SDS011;39642;47.556;18.728;2022-12-18T09:06:47;21.50;;;10.85;;
51248;SDS011;39642;47.556;18.728;2022-12-18T09:09:13;21.55;;;11.10;;
51248;SDS011;39642;47.556;18.728;2022-12-18T09:11:39;20.80;;;11.18;;
51248;SDS011;39642;47.556;18.728;2022-12-18T09:14:05;21.20;;;11.27;;
51248;SDS011;39642;47.556;18.728;2022-12-18T09:16:31;21.73;;;11.50;;
51248;SDS011;39642;47.556;18.728;2022-12-18T09:18:58;22.23;;;10.70;;
51248;SDS011;39642;47.556;18.728;2022-12-18T09:21:25;20.52;;;10.32;;
51248;SDS011;39642;47.556;18.728;2022-12-18T09:23:56;21.67;;;10.40;;
51248;SDS011;39642;47.556;18.728;2022-12-18T09:26:23;22.73;;;11.38;;
51248;SDS011;39642;47.556;18.728;2022-12-18T09:28:49;20.30;;;10.52;;
51248;SDS011;39642;47.556;18.728;2022-12-18T09:31:17;22.83;;;11.40;;
51248;SDS011;39642;47.556;18.728;2022-12-18T09:33:44;22.13;;;10.90;;
51248;SDS011;39642;47.556;18.728;2022-12-18T09:36:14;21.37;;;10.65;;
51248;SDS011;39642;47.556;18.728;2022-12-18T09:38:42;22.23;;;10.57;;
51248;SDS011;39642;47.556;18.728;2022-12-18T09:41:19;22.15;;;11.18;;
51248;SDS011;39642;47.556;18.728;2022-12-18T09:49:26;20.77;;;10.60;;
51248;SDS011;39642;47.556;18.728;2022-12-18T09:54:40;21.10;;;10.68;;
51248;SDS011;39642;47.556;18.728;2022-12-18T09:57:11;22.50;;;10.98;;
51248;SDS011;39642;47.556;18.728;2022-12-18T09:59:40;20.58;;;10.45;;
51248;SDS011;39642;47.556;18.728;2022-12-18T10:02:22;20.90;;;10.18;;
51248;SDS011;39642;47.556;18.728;2022-12-18T10:07:28;21.62;;;10.80;;
51248;SDS011;39642;47.556;18.728;2022-12-18T10:10:35;22.25;;;10.88;;
51248;SDS011;39642;47.556;18.728;2022-12-18T10:13:15;20.80;;;9.95;;
51248;SDS011;39642;47.556;18.728;2022-12-18T10:16:04;21.17;;;10.23;;
51248;SDS011;39642;47.556;18.728;2022-12-18T10:18:59;20.67;;;10.98;;
51248;SDS011;39642;47.556;18.728;2022-12-18T10:21:30;21.17;;;10.27;;
51248;SDS011;39642;47.556;18.728;2022-12-18T10:26:31;20.70;;;10.18;;
51248;SDS011;39642;47.556;18.728;2022-12-18T10:28:58;21.45;;;10.00;;
51248;SDS011;39642;47.556;18.728;2022-12-18T10:31:25;21.23;;;10.52;;
51248;SDS011;39642;47.556;18.728;2022-12-18T10:33:53;21.23;;;10.60;;
51248;SDS011;39642;47.556;18.728;2022-12-18T10:36:20;20.67;;;9.80;;
51248;SDS011;39642;47.556;18.728;2022-12-18T10:38:46;21.25;;;10.30;;
51248;SDS011;39642;47.556;18.728;2022-12-18T10:41:33;22.20;;;10.75;;
51248;SDS011;39642;47.556;18.728;2022-12-18T10:44:17;22.42;;;10.80;;
51248;SDS011;39642;47.556;18.728;2022-12-18T10:46:46;21.58;;;10.23;;
51248;SDS011;39642;47.556;18.728;2022-12-18T10:49:18;22.15;;;10.95;;
51248;SDS011;39642;47.556;18.728;2022-12-18T10:51:47;21.17;;;10.30;;
51248;SDS011;39642;47.556;18.728;2022-12-18T10:54:15;21.02;;;10.25;;
51248;SDS011;39642;47.556;18.728;2022-12-18T10:56:43;21.12;;;10.20;;
51248;SDS011;39642;47.556;18.728;2022-12-18T10:59:10;21.33;;;10.45;;
51248;SDS011;39642;47.556;18.728;2022-12-18T11:01:45;20.88;;;10.55;;
51248;SDS011;39642;47.556;18.728;2022-12-18T11:04:20;20.65;;;9.90;;
51248;SDS011;39642;47.556;18.728;2022-12-18T11:06:57;22.17;;;10.10;;
51248;SDS011;39642;47.556;18.728;2022-12-18T11:09:32;20.70;;;10.52;;
51248;SDS011;39642;47.556;18.728;2022-12-18T11:12:15;21.83;;;10.63;;
51248;SDS011;39642;47.556;18.728;2022-12-18T11:17:32;20.08;;;10.10;;
51248;SDS011;39642;47.556;18.728;2022-12-18T11:20:01;20.73;;;10.18;;
51248;SDS011;39642;47.556;18.728;2022-12-18T11:22:34;22.08;;;10.20;;
51248;SDS011;39642;47.556;18.728;2022-12-18T11:27:37;19.27;;;9.45;;
51248;SDS011;39642;47.556;18.728;2022-12-18T11:30:08;20.62;;;10.13;;
51248;SDS011;39642;47.556;18.728;2022-12-18T11:32:35;21.02;;;9.68;;
51248;SDS011;39642;47.556;18.728;2022-12-18T11:37:40;19.90;;;9.65;;
51248;SDS011;39642;47.556;18.728;2022-12-18T11:40:16;21.40;;;10.50;;
51248;SDS011;39642;47.556;18.728;2022-12-18T11:42:50;20.30;;;9.63;;
51248;SDS011;39642;47.556;18.728;2022-12-18T11:45:26;20.65;;;9.50;;
51248;SDS011;39642;47.556;18.728;2022-12-18T11:48:30;21.30;;;10.27;;
51248;SDS011;39642;47.556;18.728;2022-12-18T11:51:00;20.17;;;9.80;;
51248;SDS011;39642;47.556;18.728;2022-12-18T11:53:30;20.58;;;10.15;;
51248;SDS011;39642;47.556;18.728;2022-12-18T11:58:41;21.45;;;10.40;;
51248;SDS011;39642;47.556;18.728;2022-12-18T12:06:52;21.27;;;10.30;;
51248;SDS011;39642;47.556;18.728;2022-12-18T12:12:32;19.83;;;9.98;;
51248;SDS011;39642;47.556;18.728;2022-12-18T12:29:50;20.65;;;9.68;;
51248;SDS011;39642;47.556;18.728;2022-12-18T12:38:04;25.75;;;10.50;;
51248;SDS011;39642;47.556;18.728;2022-12-18T12:40:47;21.20;;;10.73;;
51248;SDS011;39642;47.556;18.728;2022-12-18T12:43:55;21.90;;;10.18;;
51248;SDS011;39642;47.556;18.728;2022-12-18T12:46:24;18.98;;;9.63;;
51248;SDS011;39642;47.556;18.728;2022-12-18T12:48:52;19.27;;;10.15;;
51248;SDS011;39642;47.556;18.728;2022-12-18T12:53:58;21.62;;;10.02;;
51248;SDS011;39642;47.556;18.728;2022-12-18T12:56:27;20.30;;;9.65;;
51248;SDS011;39642;47.556;18.728;2022-12-18T13:02:05;19.37;;;9.65;;
51248;SDS011;39642;47.556;18.728;2022-12-18T13:07:06;19.23;;;9.70;;
51248;SDS011;39642;47.556;18.728;2022-12-18T13:15:32;18.87;;;9.80;;
51248;SDS011;39642;47.556;18.728;2022-12-18T13:34:24;21.20;;;9.80;;
51248;SDS011;39642;47.556;18.728;2022-12-18T13:36:52;20.48;;;9.55;;
51248;SDS011;39642;47.556;18.728;2022-12-18T13:41:49;18.75;;;9.13;;
51248;SDS011;39642;47.556;18.728;2022-12-18T13:47:00;19.55;;;9.15;;
51248;SDS011;39642;47.556;18.728;2022-12-18T13:49:41;20.88;;;9.70;;
51248;SDS011;39642;47.556;18.728;2022-12-18T13:52:16;20.42;;;9.85;;
51248;SDS011;39642;47.556;18.728;2022-12-18T13:54:46;19.65;;;9.55;;
51248;SDS011;39642;47.556;18.728;2022-12-18T14:00:16;19.62;;;9.15;;
51248;SDS011;39642;47.556;18.728;2022-12-18T14:02:50;18.87;;;9.23;;
51248;SDS011;39642;47.556;18.728;2022-12-18T14:07:48;18.33;;;8.90;;
51248;SDS011;39642;47.556;18.728;2022-12-18T14:10:15;19.92;;;9.05;;
51248;SDS011;39642;47.556;18.728;2022-12-18T14:12:45;19.08;;;8.98;;
51248;SDS011;39642;47.556;18.728;2022-12-18T14:15:28;19.05;;;8.93;;
51248;SDS011;39642;47.556;18.728;2022-12-18T14:20:49;19.48;;;9.77;;
51248;SDS011;39642;47.556;18.728;2022-12-18T14:25:57;19.77;;;9.30;;
51248;SDS011;39642;47.556;18.728;2022-12-18T14:28:24;20.48;;;9.60;;
51248;SDS011;39642;47.556;18.728;2022-12-18T14:30:51;19.40;;;9.18;;
51248;SDS011;39642;47.556;18.728;2022-12-18T14:33:20;19.12;;;8.85;;
51248;SDS011;39642;47.556;18.728;2022-12-18T14:38:25;18.75;;;9.13;;
51248;SDS011;39642;47.556;18.728;2022-12-18T14:41:02;19.45;;;8.98;;
51248;SDS011;39642;47.556;18.728;2022-12-18T14:43:31;18.17;;;9.10;;
51248;SDS011;39642;47.556;18.728;2022-12-18T14:45:59;18.67;;;9.25;;
51248;SDS011;39642;47.556;18.728;2022-12-18T14:48:34;19.33;;;9.63;;
51248;SDS011;39642;47.556;18.728;2022-12-18T14:51:01;20.00;;;9.98;;
51248;SDS011;39642;47.556;18.728;2022-12-18T14:53:48;18.25;;;8.88;;
51248;SDS011;39642;47.556;18.728;2022-12-18T14:56:23;20.05;;;9.05;;
51248;SDS011;39642;47.556;18.728;2022-12-18T14:58:50;18.65;;;8.63;;
51248;SDS011;39642;47.556;18.728;2022-12-18T15:01:23;20.85;;;9.52;;
51248;SDS011;39642;47.556;18.728;2022-12-18T15:04:01;20.20;;;9.38;;
51248;SDS011;39642;47.556;18.728;2022-12-18T15:09:06;19.45;;;9.23;;
51248;SDS011;39642;47.556;18.728;2022-12-18T15:11:48;19.75;;;9.48;;
51248;SDS011;39642;47.556;18.728;2022-12-18T15:16:55;20.27;;;9.77;;
51248;SDS011;39642;47.556;18.728;2022-12-18T15:19:31;19.45;;;9.38;;
51248;SDS011;39642;47.556;18.728;2022-12-18T15:22:01;20.05;;;9.88;;
51248;SDS011;39642;47.556;18.728;2022-12-18T15:24:27;20.73;;;10.20;;
51248;SDS011;39642;47.556;18.728;2022-12-18T15:26:58;21.02;;;10.18;;
51248;SDS011;39642;47.556;18.728;2022-12-18T15:29:25;20.35;;;9.85;;
51248;SDS011;39642;47.556;18.728;2022-12-18T15:32:01;21.15;;;9.75;;
51248;SDS011;39642;47.556;18.728;2022-12-18T15:34:42;19.37;;;9.25;;
51248;SDS011;39642;47.556;18.728;2022-12-18T15:37:08;20.02;;;9.52;;
51248;SDS011;39642;47.556;18.728;2022-12-18T15:39:34;22.05;;;10.75;;
51248;SDS011;39642;47.556;18.728;2022-12-18T15:42:01;20.77;;;10.07;;
51248;SDS011;39642;47.556;18.728;2022-12-18T15:44:46;22.40;;;10.30;;
51248;SDS011;39642;47.556;18.728;2022-12-18T15:47:12;20.52;;;9.75;;
51248;SDS011;39642;47.556;18.728;2022-12-18T15:49:38;19.98;;;9.48;;
51248;SDS011;39642;47.556;18.728;2022-12-18T15:52:04;20.12;;;9.77;;
51248;SDS011;39642;47.556;18.728;2022-12-18T15:54:31;21.92;;;9.90;;
51248;SDS011;39642;47.556;18.728;2022-12-18T15:57:16;20.88;;;10.40;;
51248;SDS011;39642;47.556;18.728;2022-12-18T15:59:51;23.05;;;10.50;;
51248;SDS011;39642;47.556;18.728;2022-12-18T16:02:19;21.52;;;10.45;;
51248;SDS011;39642;47.556;18.728;2022-12-18T16:04:45;20.60;;;10.38;;
51248;SDS011;39642;47.556;18.728;2022-12-18T16:07:12;22.25;;;10.98;;
51248;SDS011;39642;47.556;18.728;2022-12-18T16:09:38;21.65;;;11.23;;
51248;SDS011;39642;47.556;18.728;2022-12-18T16:12:04;22.27;;;10.95;;
51248;SDS011;39642;47.556;18.728;2022-12-18T16:14:32;21.10;;;10.55;;
51248;SDS011;39642;47.556;18.728;2022-12-18T16:16:59;21.23;;;10.48;;
51248;SDS011;39642;47.556;18.728;2022-12-18T16:19:29;22.83;;;10.93;;
51248;SDS011;39642;47.556;18.728;2022-12-18T16:21:55;22.20;;;10.95;;
51248;SDS011;39642;47.556;18.728;2022-12-18T16:24:27;20.60;;;10.57;;
51248;SDS011;39642;47.556;18.728;2022-12-18T16:26:55;21.48;;;10.88;;
51248;SDS011;39642;47.556;18.728;2022-12-18T16:29:23;21.27;;;10.57;;
51248;SDS011;39642;47.556;18.728;2022-12-18T16:31:56;24.73;;;12.02;;
51248;SDS011;39642;47.556;18.728;2022-12-18T16:34:24;23.95;;;11.55;;
51248;SDS011;39642;47.556;18.728;2022-12-18T16:36:59;23.55;;;11.65;;
51248;SDS011;39642;47.556;18.728;2022-12-18T16:39:26;24.33;;;11.30;;
51248;SDS011;39642;47.556;18.728;2022-12-18T16:41:52;23.48;;;11.95;;
51248;SDS011;39642;47.556;18.728;2022-12-18T16:44:18;23.27;;;12.02;;
51248;SDS011;39642;47.556;18.728;2022-12-18T16:46:45;22.87;;;11.00;;
51248;SDS011;39642;47.556;18.728;2022-12-18T16:49:12;25.00;;;12.18;;
51248;SDS011;39642;47.556;18.728;2022-12-18T16:51:39;23.02;;;11.10;;
51248;SDS011;39642;47.556;18.728;2022-12-18T16:54:05;24.63;;;12.30;;
51248;SDS011;39642;47.556;18.728;2022-12-18T16:56:31;23.23;;;11.70;;